Time;durP1;ratioP1;P1;durP2;ratioP2;P2;SDS_P1;SDS_P2;PMS_P1;PMS_P2;Temp;Humidity;BMP_temperature;BMP_pressure;BME280_temperature;BME280_humidity;BME280_pressure;Samples;Min_cycle;Max_cycle;Signal;HPM_P1;HPM_P2
2023/08/10 00:02:03;;;;;;;7.65;3.25;;;;;;;;;;4896208;29;20043;-61
2023/08/10 00:04:29;;;;;;;6.22;3.22;;;;;;;;;;4890163;29;20051;-61
2023/08/10 00:06:54;;;;;;;7.70;3.38;;;;;;;;;;4896156;29;20029;-61
2023/08/10 00:09:20;;;;;;;9.27;3.30;;;;;;;;;;4894119;29;20430;-61
2023/08/10 00:11:45;;;;;;;7.60;3.38;;;;;;;;;;4895069;29;20088;-60
2023/08/10 00:14:11;;;;;;;10.20;3.38;;;;;;;;;;4893200;29;20136;-61
2023/08/10 00:16:36;;;;;;;6.13;3.38;;;;;;;;;;4892288;29;20067;-61
2023/08/10 00:19:02;;;;;;;8.27;3.47;;;;;;;;;;4892658;29;20452;-61
2023/08/10 00:21:27;;;;;;;8.50;3.70;;;;;;;;;;4877747;29;20147;-61
2023/08/10 00:23:56;;;;;;;6.20;3.28;;;;;;;;;;4891276;29;20039;-60
2023/08/10 00:26:21;;;;;;;7.18;3.08;;;;;;;;;;4893279;29;20036;-61
2023/08/10 00:28:47;;;;;;;5.72;3.00;;;;;;;;;;4894339;29;20035;-61
2023/08/10 00:31:12;;;;;;;4.05;2.85;;;;;;;;;;4893098;29;20040;-62
2023/08/10 00:33:38;;;;;;;7.00;2.95;;;;;;;;;;4875690;29;20040;-61
2023/08/10 00:36:09;;;;;;;7.32;3.38;;;;;;;;;;4896532;29;20040;-60
2023/08/10 00:38:37;;;;;;;6.75;3.08;;;;;;;;;;4898716;29;20043;-60
2023/08/10 00:41:03;;;;;;;6.40;2.88;;;;;;;;;;4897088;29;20486;-60
2023/08/10 00:43:28;;;;;;;7.95;3.10;;;;;;;;;;4895414;29;20529;-60
2023/08/10 00:45:54;;;;;;;6.80;3.00;;;;;;;;;;4896267;29;20481;-60
2023/08/10 00:48:21;;;;;;;7.93;3.50;;;;;;;;;;4897156;29;20060;-60
2023/08/10 00:50:48;;;;;;;7.05;3.10;;;;;;;;;;4880599;29;20047;-61
2023/08/10 00:53:14;;;;;;;5.70;3.00;;;;;;;;;;4895719;29;20067;-60
2023/08/10 00:55:42;;;;;;;6.28;3.40;;;;;;;;;;4895715;29;20048;-60
2023/08/10 00:58:07;;;;;;;7.25;3.00;;;;;;;;;;4895564;29;20056;-61
2023/08/10 01:00:34;;;;;;;9.65;2.97;;;;;;;;;;4896740;29;20043;-60
2023/08/10 01:03:00;;;;;;;7.95;3.40;;;;;;;;;;4895812;29;20036;-60
2023/08/10 01:05:29;;;;;;;9.15;3.28;;;;;;;;;;4895816;29;20492;-61
2023/08/10 01:07:55;;;;;;;7.25;3.25;;;;;;;;;;4880944;29;20043;-60
2023/08/10 01:10:58;;;;;;;6.07;3.10;;;;;;;;;;4897398;29;20032;-60
2023/08/10 01:13:31;;;;;;;7.30;3.30;;;;;;;;;;4892656;29;20501;-60
2023/08/10 01:16:03;;;;;;;8.07;2.90;;;;;;;;;;4897013;29;20506;-61
2023/08/10 01:18:32;;;;;;;6.50;2.70;;;;;;;;;;4884313;29;20039;-60
2023/08/10 01:20:59;;;;;;;6.28;3.30;;;;;;;;;;4896838;29;20032;-61
2023/08/10 01:23:37;;;;;;;7.07;2.90;;;;;;;;;;4896146;29;20032;-61
2023/08/10 01:26:02;;;;;;;6.18;2.53;;;;;;;;;;4896624;29;20048;-60
2023/08/10 01:28:31;;;;;;;4.10;2.58;;;;;;;;;;4897796;29;20032;-61
2023/08/10 01:30:57;;;;;;;5.13;2.70;;;;;;;;;;4894781;29;20028;-61
2023/08/10 01:33:22;;;;;;;8.95;2.30;;;;;;;;;;4896796;29;20164;-61
2023/08/10 01:35:48;;;;;;;9.93;2.67;;;;;;;;;;4895349;29;20051;-60
2023/08/10 01:38:16;;;;;;;7.82;2.42;;;;;;;;;;4895522;29;20120;-61
2023/08/10 01:40:41;;;;;;;7.07;2.78;;;;;;;;;;4895829;29;20040;-61
2023/08/10 01:43:07;;;;;;;6.50;3.03;;;;;;;;;;4895755;29;20024;-61
2023/08/10 01:45:32;;;;;;;6.18;2.50;;;;;;;;;;4893678;29;20047;-61
2023/08/10 01:48:03;;;;;;;9.18;2.67;;;;;;;;;;4879785;29;20470;-61
2023/08/10 01:50:33;;;;;;;9.30;2.30;;;;;;;;;;4896479;29;20033;-60
2023/08/10 01:53:14;;;;;;;7.60;2.60;;;;;;;;;;4896538;29;20092;-61
2023/08/10 01:55:40;;;;;;;6.60;2.30;;;;;;;;;;4895436;29;20040;-61
2023/08/10 01:58:06;;;;;;;5.68;2.38;;;;;;;;;;4897914;29;20048;-61
2023/08/10 02:00:33;;;;;;;4.82;2.20;;;;;;;;;;4895808;29;20430;-61
2023/08/10 02:02:58;;;;;;;6.00;2.40;;;;;;;;;;4896084;29;20462;-61
2023/08/10 02:05:30;;;;;;;6.82;2.60;;;;;;;;;;4896609;29;20040;-60
2023/08/10 02:07:55;;;;;;;5.93;2.40;;;;;;;;;;4898098;29;20044;-60
2023/08/10 02:10:21;;;;;;;5.95;2.60;;;;;;;;;;4895120;29;20430;-60
2023/08/10 02:12:46;;;;;;;7.85;2.70;;;;;;;;;;4895151;29;20035;-60
2023/08/10 02:15:12;;;;;;;6.22;2.50;;;;;;;;;;4895880;29;20120;-60
2023/08/10 02:17:38;;;;;;;6.97;2.60;;;;;;;;;;4895657;29;20473;-61
2023/08/10 02:20:14;;;;;;;6.53;3.05;;;;;;;;;;4897104;29;20044;-61
2023/08/10 02:22:45;;;;;;;8.48;2.85;;;;;;;;;;4895092;29;20115;-60
2023/08/10 02:25:11;;;;;;;6.07;2.67;;;;;;;;;;4893336;29;20092;-60
2023/08/10 02:27:38;;;;;;;7.88;2.83;;;;;;;;;;4892339;29;20028;-60
2023/08/10 02:30:06;;;;;;;6.70;2.50;;;;;;;;;;4896903;29;20190;-61
2023/08/10 02:32:31;;;;;;;6.43;2.45;;;;;;;;;;4894435;29;20037;-61
2023/08/10 02:34:57;;;;;;;6.72;2.50;;;;;;;;;;4896775;29;20047;-61
2023/08/10 02:37:22;;;;;;;5.85;2.42;;;;;;;;;;4895102;29;20040;-60
2023/08/10 02:39:47;;;;;;;5.82;2.28;;;;;;;;;;4894693;29;20036;-60
2023/08/10 02:42:13;;;;;;;6.40;2.47;;;;;;;;;;4897405;29;20378;-60
2023/08/10 02:44:38;;;;;;;8.00;2.90;;;;;;;;;;4893029;29;20036;-60
2023/08/10 02:47:04;;;;;;;6.22;2.50;;;;;;;;;;4895127;29;20052;-60
2023/08/10 02:49:29;;;;;;;8.18;2.88;;;;;;;;;;4893326;29;20131;-60
2023/08/10 02:51:54;;;;;;;8.98;2.58;;;;;;;;;;4892618;29;20052;-60
2023/08/10 02:54:20;;;;;;;8.75;2.50;;;;;;;;;;4894985;29;20039;-61
2023/08/10 02:56:45;;;;;;;10.75;2.65;;;;;;;;;;4899376;29;20493;-61
2023/08/10 02:59:10;;;;;;;5.35;2.50;;;;;;;;;;4908721;29;20036;-60
2023/08/10 03:01:36;;;;;;;5.25;2.35;;;;;;;;;;4913866;29;20087;-60
2023/08/10 03:04:01;;;;;;;7.65;2.72;;;;;;;;;;4901824;29;20413;-60
2023/08/10 03:06:29;;;;;;;5.97;2.50;;;;;;;;;;4907540;29;20079;-60
2023/08/10 03:08:55;;;;;;;4.93;2.42;;;;;;;;;;4897650;29;20040;-60
2023/08/10 03:11:20;;;;;;;4.95;2.40;;;;;;;;;;4894875;29;20028;-60
2023/08/10 03:13:46;;;;;;;5.03;2.45;;;;;;;;;;4889301;29;20442;-60
2023/08/10 03:16:11;;;;;;;5.72;2.50;;;;;;;;;;4903896;29;20036;-60
2023/08/10 03:18:36;;;;;;;6.18;2.38;;;;;;;;;;4909792;29;20438;-61
2023/08/10 03:21:02;;;;;;;7.55;2.47;;;;;;;;;;4904565;29;20145;-60
2023/08/10 03:23:27;;;;;;;5.60;2.35;;;;;;;;;;4906911;29;20450;-60
2023/08/10 03:25:52;;;;;;;8.13;2.55;;;;;;;;;;4893986;29;20041;-60
2023/08/10 03:28:18;;;;;;;5.45;2.45;;;;;;;;;;4895767;29;20051;-60
2023/08/10 03:30:43;;;;;;;6.70;2.65;;;;;;;;;;4903052;29;20040;-60
2023/08/10 03:33:09;;;;;;;6.43;2.80;;;;;;;;;;4906349;29;20099;-60
2023/08/10 03:35:34;;;;;;;7.60;3.13;;;;;;;;;;4902872;29;20028;-60
2023/08/10 03:38:00;;;;;;;6.97;2.40;;;;;;;;;;4915136;29;20043;-60
2023/08/10 03:40:25;;;;;;;5.13;2.58;;;;;;;;;;4905708;29;20095;-60
2023/08/10 03:42:50;;;;;;;6.22;2.75;;;;;;;;;;4894529;29;20180;-60
2023/08/10 03:45:16;;;;;;;5.60;2.58;;;;;;;;;;4892727;29;20032;-60
2023/08/10 03:47:42;;;;;;;3.65;2.50;;;;;;;;;;4912071;29;20111;-60
2023/08/10 03:50:08;;;;;;;7.82;3.08;;;;;;;;;;4905346;29;20049;-60
2023/08/10 03:52:33;;;;;;;6.35;2.92;;;;;;;;;;4903224;29;20033;-61
2023/08/10 03:54:59;;;;;;;6.10;2.80;;;;;;;;;;4900204;29;20036;-60
2023/08/10 03:57:25;;;;;;;6.78;3.10;;;;;;;;;;4909507;29;20049;-60
2023/08/10 03:59:50;;;;;;;7.93;3.05;;;;;;;;;;4899762;29;20066;-60
2023/08/10 04:02:16;;;;;;;9.13;3.08;;;;;;;;;;4910607;29;20043;-61
2023/08/10 04:04:41;;;;;;;7.45;2.88;;;;;;;;;;4909011;29;20123;-59
2023/08/10 04:07:07;;;;;;;8.85;3.80;;;;;;;;;;4910970;29;20059;-60
2023/08/10 04:09:34;;;;;;;13.13;3.55;;;;;;;;;;4895539;29;20036;-60
2023/08/10 04:11:59;;;;;;;8.18;3.10;;;;;;;;;;4902828;29;20493;-59
2023/08/10 04:14:25;;;;;;;6.50;3.20;;;;;;;;;;4917956;29;20087;-59
2023/08/10 04:16:51;;;;;;;11.38;3.60;;;;;;;;;;4916781;29;20063;-60
2023/08/10 04:19:16;;;;;;;7.72;3.33;;;;;;;;;;4908588;29;20115;-60
2023/08/10 04:21:42;;;;;;;7.03;3.28;;;;;;;;;;4911428;29;20381;-60
2023/08/10 04:24:07;;;;;;;12.38;4.15;;;;;;;;;;4911953;29;20029;-62
2023/08/10 04:26:33;;;;;;;6.50;3.38;;;;;;;;;;4904501;29;20028;-62
2023/08/10 04:28:58;;;;;;;6.88;3.33;;;;;;;;;;4899614;29;20054;-61
2023/08/10 04:31:23;;;;;;;8.15;3.15;;;;;;;;;;4898534;29;20039;-61
2023/08/10 04:33:49;;;;;;;11.13;3.50;;;;;;;;;;4910527;29;20467;-61
2023/08/10 04:36:14;;;;;;;10.07;3.20;;;;;;;;;;4911615;29;20032;-61
2023/08/10 04:38:39;;;;;;;7.72;3.85;;;;;;;;;;4898643;29;20458;-61
2023/08/10 04:41:05;;;;;;;8.40;3.78;;;;;;;;;;4896342;29;20044;-61
2023/08/10 04:43:30;;;;;;;9.95;4.45;;;;;;;;;;4898671;29;20618;-61
2023/08/10 04:45:56;;;;;;;7.38;3.60;;;;;;;;;;4896870;29;20043;-61
2023/08/10 04:48:21;;;;;;;5.25;3.35;;;;;;;;;;4897591;29;20035;-60
2023/08/10 04:50:46;;;;;;;7.30;3.75;;;;;;;;;;4895934;29;20484;-60
2023/08/10 04:53:12;;;;;;;12.27;3.97;;;;;;;;;;4910507;29;20040;-60
2023/08/10 04:55:37;;;;;;;7.40;3.70;;;;;;;;;;4906332;29;20033;-60
2023/08/10 04:58:03;;;;;;;6.32;3.70;;;;;;;;;;4906221;29;20072;-60
2023/08/10 05:00:28;;;;;;;8.88;3.90;;;;;;;;;;4897904;29;20056;-60
2023/08/10 05:02:53;;;;;;;8.20;3.70;;;;;;;;;;4897363;29;20514;-60
2023/08/10 05:05:19;;;;;;;8.45;4.05;;;;;;;;;;4903376;29;20126;-60
2023/08/10 05:07:46;;;;;;;8.40;3.80;;;;;;;;;;4912587;29;20047;-60
2023/08/10 05:10:12;;;;;;;9.95;3.80;;;;;;;;;;4898161;29;20033;-60
2023/08/10 05:12:38;;;;;;;8.88;3.83;;;;;;;;;;4897049;29;20029;-60
2023/08/10 05:15:05;;;;;;;10.70;3.65;;;;;;;;;;4898269;29;20116;-60
2023/08/10 05:17:30;;;;;;;9.52;3.60;;;;;;;;;;4898234;29;20115;-59
2023/08/10 05:19:56;;;;;;;10.15;3.78;;;;;;;;;;4896173;29;20542;-60
2023/08/10 05:22:21;;;;;;;8.30;3.75;;;;;;;;;;4898912;29;20053;-62
2023/08/10 05:24:47;;;;;;;8.90;4.13;;;;;;;;;;4895222;29;20040;-61
2023/08/10 05:27:12;;;;;;;8.73;4.53;;;;;;;;;;4875830;29;20043;-62
2023/08/10 05:29:38;;;;;;;9.05;4.20;;;;;;;;;;4893832;29;20036;-62
2023/08/10 05:32:04;;;;;;;9.95;4.50;;;;;;;;;;4896962;29;20482;-61
2023/08/10 05:34:29;;;;;;;10.35;4.30;;;;;;;;;;4897720;29;20103;-61
2023/08/10 05:36:54;;;;;;;13.07;4.90;;;;;;;;;;4895438;29;20032;-63
2023/08/10 05:39:20;;;;;;;11.13;4.55;;;;;;;;;;4896998;29;20091;-62
2023/08/10 05:41:45;;;;;;;12.82;4.75;;;;;;;;;;4896925;29;20374;-65
2023/08/10 05:44:12;;;;;;;8.88;4.75;;;;;;;;;;4897806;29;20076;-65
2023/08/10 05:46:37;;;;;;;10.15;4.75;;;;;;;;;;4896424;29;20035;-64
2023/08/10 05:49:03;;;;;;;8.50;4.78;;;;;;;;;;4896630;29;20107;-64
2023/08/10 05:51:28;;;;;;;10.13;4.47;;;;;;;;;;4880783;29;20430;-64
2023/08/10 05:53:54;;;;;;;10.45;4.70;;;;;;;;;;4896528;29;20032;-64
2023/08/10 05:56:20;;;;;;;13.05;4.82;;;;;;;;;;4895931;29;20036;-64
2023/08/10 05:58:45;;;;;;;9.10;4.57;;;;;;;;;;4897081;29;20128;-62
2023/08/10 06:01:11;;;;;;;13.02;4.82;;;;;;;;;;4897478;29;20132;-62
2023/08/10 06:03:37;;;;;;;7.53;4.55;;;;;;;;;;4897673;29;20032;-64
2023/08/10 06:06:06;;;;;;;10.10;5.00;;;;;;;;;;4893390;29;20393;-63
2023/08/10 06:08:33;;;;;;;9.35;4.97;;;;;;;;;;4897407;29;20075;-63
2023/08/10 06:10:59;;;;;;;15.50;5.20;;;;;;;;;;4897115;29;20044;-64
2023/08/10 06:13:25;;;;;;;9.93;4.82;;;;;;;;;;4897912;29;20041;-64
2023/08/10 06:15:50;;;;;;;13.05;5.28;;;;;;;;;;4894801;29;20040;-62
2023/08/10 06:18:18;;;;;;;12.38;5.22;;;;;;;;;;4897458;29;20065;-63
2023/08/10 06:20:45;;;;;;;16.40;5.40;;;;;;;;;;4896650;29;20478;-62
2023/08/10 06:23:11;;;;;;;10.95;5.47;;;;;;;;;;4897709;29;20032;-62
2023/08/10 06:25:36;;;;;;;9.70;5.07;;;;;;;;;;4897699;29;20176;-63
2023/08/10 06:28:02;;;;;;;11.80;5.70;;;;;;;;;;4896322;29;20162;-63
2023/08/10 06:30:28;;;;;;;12.98;5.22;;;;;;;;;;4895691;29;20044;-64
2023/08/10 06:32:53;;;;;;;10.27;5.00;;;;;;;;;;4896403;29;20040;-65
2023/08/10 06:35:19;;;;;;;12.43;5.30;;;;;;;;;;4897321;29;20049;-64
2023/08/10 06:37:45;;;;;;;13.98;5.32;;;;;;;;;;4893085;29;20044;-63
2023/08/10 06:40:15;;;;;;;9.40;4.30;;;;;;;;;;4897157;29;20466;-64
2023/08/10 06:42:41;;;;;;;9.85;4.00;;;;;;;;;;4897117;29;20044;-63
2023/08/10 06:45:06;;;;;;;9.23;3.70;;;;;;;;;;4895144;29;20124;-64
2023/08/10 06:47:32;;;;;;;8.25;3.38;;;;;;;;;;4878213;29;20035;-64
2023/08/10 06:49:58;;;;;;;7.97;3.50;;;;;;;;;;4894143;29;20099;-63
2023/08/10 06:52:24;;;;;;;6.88;2.75;;;;;;;;;;4897214;29;20029;-65
2023/08/10 06:54:52;;;;;;;7.30;3.30;;;;;;;;;;4896301;29;20123;-65
2023/08/10 06:57:23;;;;;;;9.23;2.80;;;;;;;;;;4883745;29;20052;-63
2023/08/10 06:59:49;;;;;;;7.43;2.97;;;;;;;;;;4895431;29;20033;-64
2023/08/10 07:02:16;;;;;;;11.48;3.33;;;;;;;;;;4896333;29;20092;-65
2023/08/10 07:04:43;;;;;;;9.23;2.90;;;;;;;;;;4894300;29;20379;-65
2023/08/10 07:07:09;;;;;;;8.35;2.83;;;;;;;;;;4896669;29;20037;-63
2023/08/10 07:09:36;;;;;;;4.18;2.50;;;;;;;;;;4894501;29;20028;-63
2023/08/10 07:12:02;;;;;;;8.65;2.90;;;;;;;;;;4894567;29;20045;-65
2023/08/10 07:14:27;;;;;;;6.43;2.60;;;;;;;;;;4895528;29;20474;-65
2023/08/10 07:16:53;;;;;;;11.30;2.50;;;;;;;;;;4894007;29;20100;-65
2023/08/10 07:19:18;;;;;;;7.82;2.65;;;;;;;;;;4896587;29;20526;-65
2023/08/10 07:21:46;;;;;;;9.68;2.65;;;;;;;;;;4895907;29;20032;-64
2023/08/10 07:24:12;;;;;;;6.97;2.30;;;;;;;;;;4895513;29;20375;-63
2023/08/10 07:26:37;;;;;;;8.93;2.90;;;;;;;;;;4895871;29;20096;-62
2023/08/10 07:29:03;;;;;;;9.07;2.40;;;;;;;;;;4895990;29;20088;-62
2023/08/10 07:31:31;;;;;;;7.78;3.20;;;;;;;;;;4896698;29;20045;-62
2023/08/10 07:33:58;;;;;;;10.05;2.40;;;;;;;;;;4895551;29;20554;-62
2023/08/10 07:36:25;;;;;;;7.25;2.30;;;;;;;;;;4893982;29;20040;-62
2023/08/10 07:38:50;;;;;;;6.63;2.42;;;;;;;;;;4895632;29;20401;-63
2023/08/10 07:41:16;;;;;;;6.03;2.38;;;;;;;;;;4909103;29;20040;-62
2023/08/10 07:43:41;;;;;;;5.20;2.33;;;;;;;;;;4914520;29;20441;-63
2023/08/10 07:46:07;;;;;;;7.25;2.08;;;;;;;;;;4899399;29;20037;-64
2023/08/10 07:48:32;;;;;;;8.30;2.30;;;;;;;;;;4900183;29;20029;-61
2023/08/10 07:50:58;;;;;;;4.22;2.00;;;;;;;;;;4899447;29;20473;-62
2023/08/10 07:53:24;;;;;;;10.20;2.30;;;;;;;;;;4899075;29;20131;-63
2023/08/10 07:55:52;;;;;;;7.05;2.17;;;;;;;;;;4898721;29;20123;-64
2023/08/10 07:58:18;;;;;;;5.85;1.90;;;;;;;;;;4897510;29;20052;-64
2023/08/10 08:00:43;;;;;;;4.05;1.98;;;;;;;;;;4899760;29;20028;-64
2023/08/10 08:03:09;;;;;;;9.02;2.30;;;;;;;;;;4899257;29;20115;-64
2023/08/10 08:05:37;;;;;;;6.80;2.20;;;;;;;;;;4897047;29;20488;-62
2023/08/10 08:08:04;;;;;;;7.97;2.40;;;;;;;;;;4882088;29;20037;-63
2023/08/10 08:10:29;;;;;;;4.55;2.10;;;;;;;;;;4900206;29;20549;-62
2023/08/10 08:12:55;;;;;;;5.40;2.05;;;;;;;;;;4881400;29;20123;-62
2023/08/10 08:15:21;;;;;;;5.03;2.00;;;;;;;;;;4899811;29;20096;-63
2023/08/10 08:18:24;;;;;;;4.65;2.17;;;;;;;;;;4882922;29;20123;-63
2023/08/10 08:20:49;;;;;;;4.50;1.70;;;;;;;;;;4897458;29;20043;-61
2023/08/10 08:23:14;;;;;;;6.47;1.92;;;;;;;;;;4899199;29;20036;-61
2023/08/10 08:25:40;;;;;;;4.05;1.88;;;;;;;;;;4899636;29;20517;-61
2023/08/10 08:28:05;;;;;;;4.60;2.00;;;;;;;;;;4894760;29;20060;-62
2023/08/10 08:30:31;;;;;;;6.30;2.00;;;;;;;;;;4897557;29;20047;-59
2023/08/10 08:32:57;;;;;;;5.32;1.95;;;;;;;;;;4898834;29;20036;-61
2023/08/10 08:35:24;;;;;;;7.40;2.00;;;;;;;;;;4899529;29;20040;-60
2023/08/10 08:37:51;;;;;;;4.20;1.70;;;;;;;;;;4899074;29;20038;-64
2023/08/10 08:40:16;;;;;;;4.90;1.90;;;;;;;;;;4896589;29;20040;-64
2023/08/10 08:42:44;;;;;;;6.30;1.90;;;;;;;;;;4898888;29;20029;-64
2023/08/10 08:45:10;;;;;;;4.28;1.77;;;;;;;;;;4898339;29;20039;-63
2023/08/10 08:47:36;;;;;;;7.93;1.88;;;;;;;;;;4899146;29;20037;-63
2023/08/10 08:50:02;;;;;;;5.00;2.13;;;;;;;;;;4898469;29;20055;-63
2023/08/10 08:52:28;;;;;;;6.30;2.10;;;;;;;;;;4899374;29;20029;-62
2023/08/10 08:54:57;;;;;;;3.90;1.80;;;;;;;;;;4896098;29;20103;-62
2023/08/10 08:57:22;;;;;;;5.57;2.10;;;;;;;;;;4885695;29;20051;-65
2023/08/10 08:59:48;;;;;;;5.00;1.85;;;;;;;;;;4897081;29;20382;-64
2023/08/10 09:02:13;;;;;;;5.65;2.10;;;;;;;;;;4898006;29;20371;-64
2023/08/10 09:04:39;;;;;;;6.97;1.80;;;;;;;;;;4898200;29;20068;-62
2023/08/10 09:07:04;;;;;;;5.40;2.25;;;;;;;;;;4897646;29;20045;-65
2023/08/10 09:09:30;;;;;;;3.85;1.83;;;;;;;;;;4897978;29;20107;-63
2023/08/10 09:11:56;;;;;;;5.10;2.13;;;;;;;;;;4896814;29;20033;-63
2023/08/10 09:14:21;;;;;;;4.75;2.00;;;;;;;;;;4896301;29;20867;-64
2023/08/10 09:16:49;;;;;;;7.60;2.08;;;;;;;;;;4898778;29;20037;-65
2023/08/10 09:19:16;;;;;;;5.50;1.67;;;;;;;;;;4898263;29;20079;-65
2023/08/10 09:21:45;;;;;;;7.13;1.88;;;;;;;;;;4897392;29;20394;-65
2023/08/10 09:24:10;;;;;;;7.07;2.08;;;;;;;;;;4895728;29;20744;-62
2023/08/10 09:26:38;;;;;;;6.10;1.75;;;;;;;;;;4896639;29;20116;-61
2023/08/10 09:29:04;;;;;;;3.85;1.70;;;;;;;;;;4896698;29;20385;-62
2023/08/10 09:31:29;;;;;;;8.10;1.90;;;;;;;;;;4898695;29;20032;-62
2023/08/10 09:33:59;;;;;;;4.72;1.60;;;;;;;;;;4894801;29;20043;-64
2023/08/10 09:36:29;;;;;;;3.67;1.67;;;;;;;;;;4898398;29;20040;-66
2023/08/10 09:38:55;;;;;;;4.43;1.52;;;;;;;;;;4897706;29;20064;-65
2023/08/10 09:41:22;;;;;;;4.75;2.00;;;;;;;;;;4898417;29;20111;-66
2023/08/10 09:43:48;;;;;;;3.10;1.52;;;;;;;;;;4898140;29;20028;-65
2023/08/10 09:46:14;;;;;;;3.08;1.60;;;;;;;;;;4897340;29;20182;-66
2023/08/10 09:48:45;;;;;;;5.35;2.00;;;;;;;;;;4897604;29;20529;-65
2023/08/10 09:51:12;;;;;;;4.68;1.80;;;;;;;;;;4895259;29;20371;-64
2023/08/10 09:53:38;;;;;;;3.80;1.48;;;;;;;;;;4897961;29;20450;-64
2023/08/10 09:56:07;;;;;;;4.65;1.52;;;;;;;;;;4897338;29;20557;-64
2023/08/10 09:58:37;;;;;;;5.10;1.80;;;;;;;;;;4896377;29;20051;-64
2023/08/10 10:01:03;;;;;;;5.57;1.80;;;;;;;;;;4895618;29;20029;-63
2023/08/10 10:03:31;;;;;;;3.97;1.50;;;;;;;;;;4896310;29;20073;-64
2023/08/10 10:05:57;;;;;;;4.70;1.80;;;;;;;;;;4878564;29;20036;-63
2023/08/10 10:08:25;;;;;;;3.90;1.67;;;;;;;;;;4894234;29;20367;-65
2023/08/10 10:10:51;;;;;;;5.35;1.60;;;;;;;;;;4898090;29;20044;-63
2023/08/10 10:13:18;;;;;;;6.03;2.05;;;;;;;;;;4896585;29;20039;-66
2023/08/10 10:15:44;;;;;;;6.40;1.60;;;;;;;;;;4895408;29;20549;-63
2023/08/10 10:18:11;;;;;;;3.72;1.65;;;;;;;;;;4896484;29;20032;-64
2023/08/10 10:20:42;;;;;;;4.97;2.00;;;;;;;;;;4897822;29;20064;-64
2023/08/10 10:23:21;;;;;;;2.58;1.63;;;;;;;;;;4896611;29;20086;-64
2023/08/10 10:25:59;;;;;;;3.20;1.73;;;;;;;;;;4893491;29;20138;-63
2023/08/10 10:28:26;;;;;;;3.72;1.80;;;;;;;;;;4894692;29;20043;-64
2023/08/10 10:31:04;;;;;;;3.42;1.90;;;;;;;;;;4896536;29;20088;-63
2023/08/10 10:33:31;;;;;;;3.28;1.70;;;;;;;;;;4895770;29;20067;-64
2023/08/10 10:36:13;;;;;;;4.78;2.20;;;;;;;;;;4895728;29;20024;-63
2023/08/10 10:38:46;;;;;;;5.10;1.90;;;;;;;;;;4893217;29;21710;-62
2023/08/10 10:41:16;;;;;;;5.88;2.03;;;;;;;;;;4879493;29;20111;-61
2023/08/10 10:43:44;;;;;;;3.78;1.83;;;;;;;;;;4896413;29;20036;-61
2023/08/10 10:46:40;;;;;;;6.53;1.92;;;;;;;;;;4896185;29;20116;-62
2023/08/10 10:49:12;;;;;;;3.47;1.60;;;;;;;;;;4893878;29;20494;-62
2023/08/10 10:51:59;;;;;;;5.45;2.30;;;;;;;;;;4895958;29;20033;-62
2023/08/10 10:54:25;;;;;;;4.53;1.92;;;;;;;;;;4896997;29;20037;-61
2023/08/10 10:56:51;;;;;;;5.50;1.80;;;;;;;;;;4896762;29;20498;-62
2023/08/10 10:59:18;;;;;;;3.03;1.80;;;;;;;;;;4894346;29;20044;-62
2023/08/10 11:01:48;;;;;;;3.65;1.70;;;;;;;;;;4896026;29;20044;-61
2023/08/10 11:04:14;;;;;;;3.25;1.67;;;;;;;;;;4896199;29;20028;-61
2023/08/10 11:06:39;;;;;;;5.78;2.10;;;;;;;;;;4896617;29;20044;-61
2023/08/10 11:09:07;;;;;;;6.57;2.10;;;;;;;;;;4895367;29;20033;-62
2023/08/10 11:11:32;;;;;;;6.05;1.70;;;;;;;;;;4890321;29;20040;-63
2023/08/10 11:13:58;;;;;;;5.50;1.75;;;;;;;;;;4889292;29;20092;-64
2023/08/10 11:16:23;;;;;;;5.22;1.85;;;;;;;;;;4891239;29;20100;-64
2023/08/10 11:18:50;;;;;;;5.22;1.90;;;;;;;;;;4891442;29;20037;-64
2023/08/10 11:21:20;;;;;;;5.70;1.80;;;;;;;;;;4889265;29;20028;-63
2023/08/10 11:23:45;;;;;;;4.90;2.00;;;;;;;;;;4890624;29;20068;-64
2023/08/10 11:26:11;;;;;;;3.28;1.65;;;;;;;;;;4895844;29;20452;-64
2023/08/10 11:28:37;;;;;;;3.22;1.77;;;;;;;;;;4887803;29;20150;-64
2023/08/10 11:31:04;;;;;;;2.78;1.67;;;;;;;;;;4892974;29;20486;-64
2023/08/10 11:33:30;;;;;;;4.30;2.15;;;;;;;;;;4896840;29;20033;-64
2023/08/10 11:35:56;;;;;;;3.47;1.80;;;;;;;;;;4896304;29;20041;-64
2023/08/10 11:38:22;;;;;;;7.35;2.13;;;;;;;;;;4896459;29;20116;-63
2023/08/10 11:40:48;;;;;;;5.00;1.85;;;;;;;;;;4880032;29;20088;-63
2023/08/10 11:43:15;;;;;;;3.08;1.77;;;;;;;;;;4893633;29;20709;-63
2023/08/10 11:45:41;;;;;;;3.90;2.17;;;;;;;;;;4896593;29;20099;-63
2023/08/10 11:48:13;;;;;;;3.97;2.00;;;;;;;;;;4895273;29;20367;-65
2023/08/10 11:50:39;;;;;;;3.35;1.80;;;;;;;;;;4896323;29;20036;-64
2023/08/10 11:53:15;;;;;;;4.55;1.80;;;;;;;;;;4895212;29;20426;-65
2023/08/10 11:55:48;;;;;;;9.80;2.20;;;;;;;;;;4896825;29;20052;-64
2023/08/10 11:58:15;;;;;;;4.70;2.00;;;;;;;;;;4897314;29;20188;-66
2023/08/10 12:00:41;;;;;;;3.72;2.20;;;;;;;;;;4896085;29;20033;-65
2023/08/10 12:03:21;;;;;;;6.78;2.13;;;;;;;;;;4895458;29;20428;-65
2023/08/10 12:05:50;;;;;;;4.25;2.70;;;;;;;;;;4896517;29;20033;-66
2023/08/10 12:08:29;;;;;;;5.72;2.08;;;;;;;;;;4894736;29;20497;-65
2023/08/10 12:11:02;;;;;;;5.97;2.30;;;;;;;;;;4896077;29;20032;-63
2023/08/10 12:13:27;;;;;;;4.20;2.00;;;;;;;;;;4896821;29;20088;-64
2023/08/10 12:15:54;;;;;;;3.40;2.10;;;;;;;;;;4896293;29;20032;-63
2023/08/10 12:18:21;;;;;;;3.78;1.88;;;;;;;;;;4878414;29;20502;-63
2023/08/10 12:20:48;;;;;;;5.18;1.83;;;;;;;;;;4895613;29;20040;-64
2023/08/10 12:23:14;;;;;;;4.43;1.98;;;;;;;;;;4892664;29;20047;-64
2023/08/10 12:25:41;;;;;;;3.53;1.83;;;;;;;;;;4895895;29;20032;-64
2023/08/10 12:28:07;;;;;;;3.88;1.88;;;;;;;;;;4895106;29;20500;-63
2023/08/10 12:30:36;;;;;;;2.83;1.70;;;;;;;;;;4896001;29;20064;-63
2023/08/10 12:33:02;;;;;;;5.20;1.80;;;;;;;;;;4898625;29;20127;-64
2023/08/10 12:35:28;;;;;;;2.88;1.90;;;;;;;;;;4898772;29;20037;-63
2023/08/10 12:37:53;;;;;;;3.25;1.90;;;;;;;;;;4899385;29;20043;-62
2023/08/10 12:40:19;;;;;;;4.93;2.30;;;;;;;;;;4898815;29;20072;-65
2023/08/10 12:42:45;;;;;;;5.07;2.53;;;;;;;;;;4892206;29;20044;-67
2023/08/10 12:45:14;;;;;;;4.63;2.10;;;;;;;;;;4898989;29;20114;-69
2023/08/10 12:47:42;;;;;;;6.43;2.28;;;;;;;;;;4900298;29;20095;-67
2023/08/10 12:50:09;;;;;;;5.85;2.22;;;;;;;;;;4897028;29;20041;-67
2023/08/10 12:52:36;;;;;;;2.45;1.75;;;;;;;;;;4897757;29;20037;-67
2023/08/10 12:55:02;;;;;;;3.92;1.95;;;;;;;;;;4900519;29;20028;-68
2023/08/10 12:57:29;;;;;;;5.68;2.45;;;;;;;;;;4901286;29;20082;-68
2023/08/10 12:59:56;;;;;;;3.35;1.98;;;;;;;;;;4895519;29;20496;-67
2023/08/10 13:02:21;;;;;;;4.82;1.92;;;;;;;;;;4898541;29;20112;-67
2023/08/10 13:04:47;;;;;;;4.35;2.03;;;;;;;;;;4898880;29;20123;-66
2023/08/10 13:07:12;;;;;;;5.03;2.08;;;;;;;;;;4896730;29;20135;-65
2023/08/10 13:09:38;;;;;;;3.78;2.20;;;;;;;;;;4878769;29;20040;-69
2023/08/10 13:12:13;;;;;;;5.68;2.15;;;;;;;;;;4896964;29;20426;-67
2023/08/10 13:14:41;;;;;;;4.50;2.10;;;;;;;;;;4899047;29;20088;-67
2023/08/10 13:17:07;;;;;;;3.90;2.00;;;;;;;;;;4898224;29;20032;-66
2023/08/10 13:19:33;;;;;;;3.60;2.10;;;;;;;;;;4895639;29;20116;-66
2023/08/10 13:22:00;;;;;;;3.78;2.10;;;;;;;;;;4893611;29;20032;-67
2023/08/10 13:24:25;;;;;;;4.38;2.10;;;;;;;;;;4898185;29;20047;-67
2023/08/10 13:26:51;;;;;;;7.30;2.30;;;;;;;;;;4897877;29;20037;-67
2023/08/10 13:29:17;;;;;;;5.38;2.10;;;;;;;;;;4895315;29;20033;-66
2023/08/10 13:31:43;;;;;;;3.58;2.30;;;;;;;;;;4898147;29;20029;-68
2023/08/10 13:34:11;;;;;;;4.63;2.22;;;;;;;;;;4878441;29;20485;-69
2023/08/10 13:36:40;;;;;;;5.45;2.20;;;;;;;;;;4881739;29;20044;-69
2023/08/10 13:39:06;;;;;;;4.40;2.20;;;;;;;;;;4896686;29;20036;-68
2023/08/10 13:41:32;;;;;;;4.55;2.30;;;;;;;;;;4897474;29;20539;-68
2023/08/10 13:43:57;;;;;;;5.55;2.40;;;;;;;;;;4881433;29;20119;-68
2023/08/10 13:46:29;;;;;;;5.25;2.47;;;;;;;;;;4897201;29;20139;-69
2023/08/10 13:49:18;;;;;;;5.40;2.60;;;;;;;;;;4897107;29;20049;-68
2023/08/10 13:52:25;;;;;;;5.10;2.15;;;;;;;;;;4897198;29;20466;-64
2023/08/10 13:55:00;;;;;;;5.25;1.95;;;;;;;;;;4896463;29;20040;-67
2023/08/10 13:57:35;;;;;;;5.13;2.45;;;;;;;;;;4895639;29;20414;-67
2023/08/10 14:00:16;;;;;;;4.38;2.40;;;;;;;;;;4897011;29;20084;-67
2023/08/10 14:02:42;;;;;;;3.95;2.30;;;;;;;;;;4898701;29;20039;-69
2023/08/10 14:05:09;;;;;;;7.88;2.67;;;;;;;;;;4880514;29;20033;-68
2023/08/10 14:07:35;;;;;;;4.50;2.50;;;;;;;;;;4894386;29;20029;-67
2023/08/10 14:10:00;;;;;;;5.93;2.50;;;;;;;;;;4883344;29;20068;-67
2023/08/10 14:12:26;;;;;;;7.03;2.53;;;;;;;;;;4878505;29;20039;-66
2023/08/10 14:14:51;;;;;;;5.90;2.83;;;;;;;;;;4879387;29;20360;-66
2023/08/10 14:17:17;;;;;;;5.03;2.60;;;;;;;;;;4878551;29;20056;-67
2023/08/10 14:19:42;;;;;;;3.08;2.13;;;;;;;;;;4897693;29;20040;-65
2023/08/10 14:22:07;;;;;;;4.72;2.53;;;;;;;;;;4896971;29;20035;-66
2023/08/10 14:24:33;;;;;;;3.70;2.50;;;;;;;;;;4895853;29;20055;-66
2023/08/10 14:26:58;;;;;;;6.90;2.67;;;;;;;;;;4897022;29;20029;-67
2023/08/10 14:29:24;;;;;;;5.72;2.53;;;;;;;;;;4894574;29;20375;-66
2023/08/10 14:31:49;;;;;;;4.20;2.55;;;;;;;;;;4896820;29;20064;-65
2023/08/10 14:34:21;;;;;;;5.57;2.58;;;;;;;;;;4896848;29;20512;-66
2023/08/10 14:36:46;;;;;;;5.60;2.50;;;;;;;;;;4880315;29;20033;-65
2023/08/10 14:39:12;;;;;;;4.35;2.35;;;;;;;;;;4896683;29;20032;-65
2023/08/10 14:41:38;;;;;;;3.47;2.10;;;;;;;;;;4894602;29;20044;-66